sensor_id;sensor_type;location;lat;lon;timestamp;pressure;altitude;pressure_sealevel;temperature;humidity
71384;BME280;67558;52.166;5.004;2023-03-16T00:00:11;101826.75;;;7.28;52.23
71384;BME280;67558;52.166;5.004;2023-03-16T00:02:39;101834.88;;;7.33;51.88
71384;BME280;67558;52.166;5.004;2023-03-16T00:05:06;101835.69;;;7.33;51.93
71384;BME280;67558;52.166;5.004;2023-03-16T00:07:31;101827.50;;;7.35;52.09
71384;BME280;67558;52.166;5.004;2023-03-16T00:09:58;101818.91;;;7.33;52.22
71384;BME280;67558;52.166;5.004;2023-03-16T00:12:23;101824.03;;;7.34;52.56
71384;BME280;67558;52.166;5.004;2023-03-16T00:14:50;101828.31;;;7.35;52.48
71384;BME280;67558;52.166;5.004;2023-03-16T00:17:18;101821.56;;;7.33;52.87
71384;BME280;67558;52.166;5.004;2023-03-16T00:19:49;101802.13;;;7.32;52.70
71384;BME280;67558;52.166;5.004;2023-03-16T00:22:20;101804.00;;;7.32;52.74
71384;BME280;67558;52.166;5.004;2023-03-16T00:24:45;101802.94;;;7.33;53.04
71384;BME280;67558;52.166;5.004;2023-03-16T00:27:12;101813.38;;;7.34;52.92
71384;BME280;67558;52.166;5.004;2023-03-16T00:29:49;101804.00;;;7.32;53.20
71384;BME280;67558;52.166;5.004;2023-03-16T00:32:21;101798.66;;;7.32;53.04
71384;BME280;67558;52.166;5.004;2023-03-16T00:34:46;101800.06;;;7.34;52.98
71384;BME280;67558;52.166;5.004;2023-03-16T00:37:14;101781.72;;;7.26;53.29
71384;BME280;67558;52.166;5.004;2023-03-16T00:39:41;101799.63;;;7.37;53.69
71384;BME280;67558;52.166;5.004;2023-03-16T00:42:08;101794.88;;;7.39;53.76
71384;BME280;67558;52.166;5.004;2023-03-16T00:44:35;101792.00;;;7.41;53.47
71384;BME280;67558;52.166;5.004;2023-03-16T00:47:01;101793.88;;;7.41;53.46
71384;BME280;67558;52.166;5.004;2023-03-16T00:49:27;101783.22;;;7.41;53.84
71384;BME280;67558;52.166;5.004;2023-03-16T00:51:52;101792.16;;;7.46;53.75
71384;BME280;67558;52.166;5.004;2023-03-16T00:54:18;101781.50;;;7.46;53.70
71384;BME280;67558;52.166;5.004;2023-03-16T00:56:44;101774.13;;;7.48;53.79
71384;BME280;67558;52.166;5.004;2023-03-16T00:59:09;101776.34;;;7.51;53.95
71384;BME280;67558;52.166;5.004;2023-03-16T01:01:37;101770.56;;;7.54;53.85
71384;BME280;67558;52.166;5.004;2023-03-16T01:04:02;101760.72;;;7.55;54.08
71384;BME280;67558;52.166;5.004;2023-03-16T01:06:28;101757.50;;;7.53;53.82
71384;BME280;67558;52.166;5.004;2023-03-16T01:08:53;101749.72;;;7.51;54.50
71384;BME280;67558;52.166;5.004;2023-03-16T01:11:20;101758.66;;;7.57;54.18
71384;BME280;67558;52.166;5.004;2023-03-16T01:13:48;101753.19;;;7.52;54.60
71384;BME280;67558;52.166;5.004;2023-03-16T01:16:17;101714.31;;;7.32;54.14
71384;BME280;67558;52.166;5.004;2023-03-16T01:18:47;101753.13;;;7.58;54.21
71384;BME280;67558;52.166;5.004;2023-03-16T01:21:13;101748.59;;;7.59;54.15
71384;BME280;67558;52.166;5.004;2023-03-16T01:23:39;101745.94;;;7.59;54.68
71384;BME280;67558;52.166;5.004;2023-03-16T01:26:04;101747.00;;;7.58;54.43
71384;BME280;67558;52.166;5.004;2023-03-16T01:28:31;101741.88;;;7.56;54.79
71384;BME280;67558;52.166;5.004;2023-03-16T01:31:08;101725.97;;;7.50;54.97
71384;BME280;67558;52.166;5.004;2023-03-16T01:33:34;101735.16;;;7.54;55.16
71384;BME280;67558;52.166;5.004;2023-03-16T01:36:03;101732.88;;;7.57;55.11
71384;BME280;67558;52.166;5.004;2023-03-16T01:38:29;101731.03;;;7.58;54.89
71384;BME280;67558;52.166;5.004;2023-03-16T01:40:54;101730.81;;;7.59;55.10
71384;BME280;67558;52.166;5.004;2023-03-16T01:43:22;101714.31;;;7.51;54.83
71384;BME280;67558;52.166;5.004;2023-03-16T01:48:27;101704.59;;;7.56;55.50
71384;BME280;67558;52.166;5.004;2023-03-16T01:50:54;101706.00;;;7.59;55.30
71384;BME280;67558;52.166;5.004;2023-03-16T01:53:21;101701.13;;;7.56;55.41
71384;BME280;67558;52.166;5.004;2023-03-16T01:55:48;101698.25;;;7.57;55.72
71384;BME280;67558;52.166;5.004;2023-03-16T01:58:15;101683.91;;;7.58;55.72
71384;BME280;67558;52.166;5.004;2023-03-16T02:00:40;101683.69;;;7.60;55.77
71384;BME280;67558;52.166;5.004;2023-03-16T02:03:17;101682.63;;;7.61;56.53
71384;BME280;67558;52.166;5.004;2023-03-16T02:05:45;101680.22;;;7.59;56.50
71384;BME280;67558;52.166;5.004;2023-03-16T02:08:13;101680.81;;;7.62;56.05
71384;BME280;67558;52.166;5.004;2023-03-16T02:10:39;101675.69;;;7.60;56.24
71384;BME280;67558;52.166;5.004;2023-03-16T02:13:05;101666.31;;;7.57;56.03
71384;BME280;67558;52.166;5.004;2023-03-16T02:15:30;101673.63;;;7.62;56.07
71384;BME280;67558;52.166;5.004;2023-03-16T02:17:57;101665.03;;;7.60;56.13
71384;BME280;67558;52.166;5.004;2023-03-16T02:22:59;101665.41;;;7.64;56.14
71384;BME280;67558;52.166;5.004;2023-03-16T02:28:44;101661.31;;;7.61;57.59
71384;BME280;67558;52.166;5.004;2023-03-16T02:31:13;101661.78;;;7.58;56.64
71384;BME280;67558;52.166;5.004;2023-03-16T02:33:39;101664.59;;;7.63;56.63
71384;BME280;67558;52.166;5.004;2023-03-16T02:36:05;101653.13;;;7.63;56.62
71384;BME280;67558;52.166;5.004;2023-03-16T02:38:31;101657.78;;;7.67;56.74
71384;BME280;67558;52.166;5.004;2023-03-16T02:40:59;101666.94;;;7.71;56.52
71384;BME280;67558;52.166;5.004;2023-03-16T02:43:30;101655.47;;;7.71;57.47
71384;BME280;67558;52.166;5.004;2023-03-16T02:45:58;101662.06;;;7.68;56.90
71384;BME280;67558;52.166;5.004;2023-03-16T02:50:58;101662.50;;;7.65;57.07
71384;BME280;67558;52.166;5.004;2023-03-16T02:53:23;101669.00;;;7.69;57.19
71384;BME280;67558;52.166;5.004;2023-03-16T02:55:49;101662.88;;;7.69;57.52
71384;BME280;67558;52.166;5.004;2023-03-16T02:58:15;101656.16;;;7.66;57.38
71384;BME280;67558;52.166;5.004;2023-03-16T03:00:41;101660.81;;;7.71;57.78
71384;BME280;67558;52.166;5.004;2023-03-16T03:03:06;101664.28;;;7.71;57.95
71384;BME280;67558;52.166;5.004;2023-03-16T03:05:33;101666.94;;;7.71;57.94
71384;BME280;67558;52.166;5.004;2023-03-16T03:07:59;101664.16;;;7.66;58.04
71384;BME280;67558;52.166;5.004;2023-03-16T03:10:25;101658.00;;;7.66;58.20
71384;BME280;67558;52.166;5.004;2023-03-16T03:12:50;101661.50;;;7.66;58.33
71384;BME280;67558;52.166;5.004;2023-03-16T03:15:17;101654.31;;;7.67;58.12
71384;BME280;67558;52.166;5.004;2023-03-16T03:17:43;101649.94;;;7.72;58.14
71384;BME280;67558;52.166;5.004;2023-03-16T03:20:09;101655.47;;;7.71;58.43
71384;BME280;67558;52.166;5.004;2023-03-16T03:22:40;101655.69;;;7.69;58.86
71384;BME280;67558;52.166;5.004;2023-03-16T03:25:06;101653.94;;;7.63;59.03
71384;BME280;67558;52.166;5.004;2023-03-16T03:27:33;101644.91;;;7.64;58.99
71384;BME280;67558;52.166;5.004;2023-03-16T03:29:58;101642.09;;;7.59;59.92
71384;BME280;67558;52.166;5.004;2023-03-16T03:32:23;101637.59;;;7.59;59.41
71384;BME280;67558;52.166;5.004;2023-03-16T03:34:49;101634.09;;;7.59;59.91
71384;BME280;67558;52.166;5.004;2023-03-16T03:37:15;101629.84;;;7.58;60.10
71384;BME280;67558;52.166;5.004;2023-03-16T03:39:40;101633.53;;;7.57;60.40
71384;BME280;67558;52.166;5.004;2023-03-16T03:42:06;101622.28;;;7.55;59.99
71384;BME280;67558;52.166;5.004;2023-03-16T03:44:32;101623.72;;;7.57;60.08
71384;BME280;67558;52.166;5.004;2023-03-16T03:46:59;101627.97;;;7.58;60.27
71384;BME280;67558;52.166;5.004;2023-03-16T03:49:24;101625.31;;;7.58;60.45
71384;BME280;67558;52.166;5.004;2023-03-16T03:51:50;101627.59;;;7.55;60.35
71384;BME280;67558;52.166;5.004;2023-03-16T03:54:15;101616.97;;;7.55;61.07
71384;BME280;67558;52.166;5.004;2023-03-16T03:56:41;101625.19;;;7.53;61.14
71384;BME280;67558;52.166;5.004;2023-03-16T03:59:06;101615.13;;;7.55;61.05
71384;BME280;67558;52.166;5.004;2023-03-16T04:01:32;101606.31;;;7.55;61.12
71384;BME280;67558;52.166;5.004;2023-03-16T04:03:57;101603.31;;;7.51;61.12
71384;BME280;67558;52.166;5.004;2023-03-16T04:06:22;101601.91;;;7.49;61.81
71384;BME280;67558;52.166;5.004;2023-03-16T04:08:48;101602.72;;;7.49;62.03
71384;BME280;67558;52.166;5.004;2023-03-16T04:11:13;101582.09;;;7.45;61.73
71384;BME280;67558;52.166;5.004;2023-03-16T04:13:38;101590.09;;;7.45;61.90
71384;BME280;67558;52.166;5.004;2023-03-16T04:16:04;101578.69;;;7.37;61.90
71384;BME280;67558;52.166;5.004;2023-03-16T04:18:30;101584.16;;;7.43;62.33
71384;BME280;67558;52.166;5.004;2023-03-16T04:21:05;101591.09;;;7.44;62.35
71384;BME280;67558;52.166;5.004;2023-03-16T04:23:32;101580.47;;;7.44;62.34
71384;BME280;67558;52.166;5.004;2023-03-16T04:25:58;101578.25;;;7.41;62.26
71384;BME280;67558;52.166;5.004;2023-03-16T04:28:24;101577.22;;;7.42;62.47
71384;BME280;67558;52.166;5.004;2023-03-16T04:30:51;101578.25;;;7.41;62.28
71384;BME280;67558;52.166;5.004;2023-03-16T04:33:19;101568.63;;;7.39;62.68
71384;BME280;67558;52.166;5.004;2023-03-16T04:35:46;101577.22;;;7.42;62.33
71384;BME280;67558;52.166;5.004;2023-03-16T04:38:11;101574.31;;;7.43;62.47
71384;BME280;67558;52.166;5.004;2023-03-16T04:40:37;101582.31;;;7.43;62.95
71384;BME280;67558;52.166;5.004;2023-03-16T04:43:02;101565.38;;;7.37;62.66
71384;BME280;67558;52.166;5.004;2023-03-16T04:45:27;101578.84;;;7.43;62.57
71384;BME280;67558;52.166;5.004;2023-03-16T04:47:53;101566.94;;;7.45;62.62
71384;BME280;67558;52.166;5.004;2023-03-16T04:50:18;101566.13;;;7.45;62.71
71384;BME280;67558;52.166;5.004;2023-03-16T04:52:44;101566.72;;;7.47;63.24
71384;BME280;67558;52.166;5.004;2023-03-16T04:55:09;101562.63;;;7.44;63.22
71384;BME280;67558;52.166;5.004;2023-03-16T04:57:34;101560.22;;;7.43;62.97
71384;BME280;67558;52.166;5.004;2023-03-16T05:00:00;101552.06;;;7.37;62.78
71384;BME280;67558;52.166;5.004;2023-03-16T05:02:26;101566.47;;;7.48;62.79
71384;BME280;67558;52.166;5.004;2023-03-16T05:04:51;101569.38;;;7.47;62.69
71384;BME280;67558;52.166;5.004;2023-03-16T05:07:17;101569.97;;;7.49;63.00
71384;BME280;67558;52.166;5.004;2023-03-16T05:09:42;101558.22;;;7.38;63.00
71384;BME280;67558;52.166;5.004;2023-03-16T05:12:09;101574.44;;;7.48;62.81
71384;BME280;67558;52.166;5.004;2023-03-16T05:14:35;101564.25;;;7.45;63.51
71384;BME280;67558;52.166;5.004;2023-03-16T05:17:01;101570.59;;;7.44;63.37
71384;BME280;67558;52.166;5.004;2023-03-16T05:19:28;101577.00;;;7.43;64.02
71384;BME280;67558;52.166;5.004;2023-03-16T05:21:54;101573.53;;;7.43;63.62
71384;BME280;67558;52.166;5.004;2023-03-16T05:24:21;101567.41;;;7.42;63.66
71384;BME280;67558;52.166;5.004;2023-03-16T05:26:47;101568.19;;;7.43;63.88
71384;BME280;67558;52.166;5.004;2023-03-16T05:29:12;101566.81;;;7.40;63.82
71384;BME280;67558;52.166;5.004;2023-03-16T05:31:38;101560.06;;;7.37;63.70
71384;BME280;67558;52.166;5.004;2023-03-16T05:34:03;101547.44;;;7.33;64.09
71384;BME280;67558;52.166;5.004;2023-03-16T05:36:28;101560.81;;;7.45;63.90
71384;BME280;67558;52.166;5.004;2023-03-16T05:38:54;101561.81;;;7.44;63.88
71384;BME280;67558;52.166;5.004;2023-03-16T05:41:19;101557.19;;;7.39;64.31
71384;BME280;67558;52.166;5.004;2023-03-16T05:43:46;101545.94;;;7.37;64.17
71384;BME280;67558;52.166;5.004;2023-03-16T05:46:11;101539.22;;;7.34;64.62
71384;BME280;67558;52.166;5.004;2023-03-16T05:48:37;101551.84;;;7.39;64.25
71384;BME280;67558;52.166;5.004;2023-03-16T05:51:03;101547.81;;;7.36;64.41
71384;BME280;67558;52.166;5.004;2023-03-16T05:53:31;101537.59;;;7.33;64.67
71384;BME280;67558;52.166;5.004;2023-03-16T05:55:56;101543.75;;;7.34;64.46
71384;BME280;67558;52.166;5.004;2023-03-16T05:58:21;101547.22;;;7.34;64.71
71384;BME280;67558;52.166;5.004;2023-03-16T06:00:47;101540.13;;;7.28;64.82
71384;BME280;67558;52.166;5.004;2023-03-16T06:03:14;101540.50;;;7.32;64.91
71384;BME280;67558;52.166;5.004;2023-03-16T06:05:40;101538.06;;;7.30;64.91
71384;BME280;67558;52.166;5.004;2023-03-16T06:08:05;101538.06;;;7.30;65.16
71384;BME280;67558;52.166;5.004;2023-03-16T06:10:31;101520.47;;;7.29;64.76
71384;BME280;67558;52.166;5.004;2023-03-16T06:12:56;101525.63;;;7.24;64.99
71384;BME280;67558;52.166;5.004;2023-03-16T06:15:21;101533.41;;;7.26;65.58
71384;BME280;67558;52.166;5.004;2023-03-16T06:17:49;101532.13;;;7.28;65.14
71384;BME280;67558;52.166;5.004;2023-03-16T06:20:14;101527.88;;;7.27;64.84
71384;BME280;67558;52.166;5.004;2023-03-16T06:22:42;101536.78;;;7.33;65.26
71384;BME280;67558;52.166;5.004;2023-03-16T06:25:09;101523.72;;;7.31;65.37
71384;BME280;67558;52.166;5.004;2023-03-16T06:27:36;101522.88;;;7.31;65.31
71384;BME280;67558;52.166;5.004;2023-03-16T06:30:03;101506.13;;;7.30;65.30
71384;BME280;67558;52.166;5.004;2023-03-16T06:32:29;101513.78;;;7.38;65.09
71384;BME280;67558;52.166;5.004;2023-03-16T06:34:54;101517.03;;;7.41;65.12
71384;BME280;67558;52.166;5.004;2023-03-16T06:37:19;101519.47;;;7.42;65.23
71384;BME280;67558;52.166;5.004;2023-03-16T06:39:45;101506.97;;;7.43;65.38
71384;BME280;67558;52.166;5.004;2023-03-16T06:42:11;101500.16;;;7.47;65.37
71384;BME280;67558;52.166;5.004;2023-03-16T06:44:36;101507.47;;;7.51;64.94
71384;BME280;67558;52.166;5.004;2023-03-16T06:47:02;101508.63;;;7.55;64.99
71384;BME280;67558;52.166;5.004;2023-03-16T06:49:28;101506.56;;;7.57;64.65
71384;BME280;67558;52.166;5.004;2023-03-16T06:51:53;101505.72;;;7.57;64.94
71384;BME280;67558;52.166;5.004;2023-03-16T06:54:19;101500.06;;;7.53;64.89
71384;BME280;67558;52.166;5.004;2023-03-16T06:56:44;101499.81;;;7.55;65.01
71384;BME280;67558;52.166;5.004;2023-03-16T06:59:09;101501.66;;;7.54;64.89
71384;BME280;67558;52.166;5.004;2023-03-16T07:01:35;101483.13;;;7.48;65.08
71384;BME280;67558;52.166;5.004;2023-03-16T07:04:00;101491.59;;;7.56;64.87
71384;BME280;67558;52.166;5.004;2023-03-16T07:06:26;101487.66;;;7.59;64.58
71384;BME280;67558;52.166;5.004;2023-03-16T07:08:51;101491.63;;;7.68;65.05
71384;BME280;67558;52.166;5.004;2023-03-16T07:11:16;101498.13;;;7.72;64.84
71384;BME280;67558;52.166;5.004;2023-03-16T07:13:42;101497.66;;;7.75;64.89
71384;BME280;67558;52.166;5.004;2023-03-16T07:16:08;101501.72;;;7.78;64.70
71384;BME280;67558;52.166;5.004;2023-03-16T07:18:33;101484.47;;;7.80;64.77
71384;BME280;67558;52.166;5.004;2023-03-16T07:21:01;101485.28;;;7.81;64.71
71384;BME280;67558;52.166;5.004;2023-03-16T07:23:28;101488.28;;;7.85;64.42
71384;BME280;67558;52.166;5.004;2023-03-16T07:25:53;101467.69;;;7.80;65.16
71384;BME280;67558;52.166;5.004;2023-03-16T07:28:18;101467.44;;;7.82;65.06
71384;BME280;67558;52.166;5.004;2023-03-16T07:30:44;101480.78;;;7.82;64.44
71384;BME280;67558;52.166;5.004;2023-03-16T07:33:10;101480.78;;;7.82;65.17
71384;BME280;67558;52.166;5.004;2023-03-16T07:35:36;101475.88;;;7.78;64.71
71384;BME280;67558;52.166;5.004;2023-03-16T07:38:01;101490.94;;;7.85;64.38
71384;BME280;67558;52.166;5.004;2023-03-16T07:40:27;101481.13;;;7.85;64.69
71384;BME280;67558;52.166;5.004;2023-03-16T07:42:52;101485.19;;;7.88;64.84
71384;BME280;67558;52.166;5.004;2023-03-16T07:45:17;101486.22;;;7.87;64.38
71384;BME280;67558;52.166;5.004;2023-03-16T07:47:43;101491.31;;;7.88;64.33
71384;BME280;67558;52.166;5.004;2023-03-16T07:50:10;101493.97;;;7.88;64.54
71384;BME280;67558;52.166;5.004;2023-03-16T07:52:36;101472.88;;;7.87;65.05
71384;BME280;67558;52.166;5.004;2023-03-16T07:55:02;101484.59;;;7.97;64.60
71384;BME280;67558;52.166;5.004;2023-03-16T07:57:28;101476.97;;;8.01;64.57
71384;BME280;67558;52.166;5.004;2023-03-16T07:59:53;101475.47;;;8.05;64.52
71384;BME280;67558;52.166;5.004;2023-03-16T08:02:19;101475.34;;;8.12;64.55
71384;BME280;67558;52.166;5.004;2023-03-16T08:04:45;101472.31;;;8.20;64.29
71384;BME280;67558;52.166;5.004;2023-03-16T08:07:13;101472.22;;;8.27;64.54
71384;BME280;67558;52.166;5.004;2023-03-16T08:09:39;101481.47;;;8.36;64.49
71384;BME280;67558;52.166;5.004;2023-03-16T08:12:06;101470.94;;;8.41;64.10
71384;BME280;67558;52.166;5.004;2023-03-16T08:14:32;101476.84;;;8.43;64.06
71384;BME280;67558;52.166;5.004;2023-03-16T08:17:01;101472.66;;;8.47;64.06
71384;BME280;67558;52.166;5.004;2023-03-16T08:19:27;101473.81;;;8.51;63.94
71384;BME280;67558;52.166;5.004;2023-03-16T08:21:53;101477.19;;;8.58;63.52
71384;BME280;67558;52.166;5.004;2023-03-16T08:24:19;101479.84;;;8.58;63.47
71384;BME280;67558;52.166;5.004;2023-03-16T08:26:45;101468.47;;;8.51;63.05
71384;BME280;67558;52.166;5.004;2023-03-16T08:29:12;101474.56;;;8.75;62.68
71384;BME280;67558;52.166;5.004;2023-03-16T08:31:37;101484.44;;;8.75;62.64
71384;BME280;67558;52.166;5.004;2023-03-16T08:34:03;101480.00;;;8.80;62.53
71384;BME280;67558;52.166;5.004;2023-03-16T08:36:29;101481.41;;;8.83;62.30
71384;BME280;67558;52.166;5.004;2023-03-16T08:38:54;101477.69;;;8.84;62.07
71384;BME280;67558;52.166;5.004;2023-03-16T08:41:20;101474.75;;;8.86;62.16
71384;BME280;67558;52.166;5.004;2023-03-16T08:43:47;101473.16;;;8.85;61.87
71384;BME280;67558;52.166;5.004;2023-03-16T08:46:12;101467.69;;;8.91;61.67
71384;BME280;67558;52.166;5.004;2023-03-16T08:48:39;101465.59;;;8.93;61.34
71384;BME280;67558;52.166;5.004;2023-03-16T08:51:06;101464.16;;;9.02;61.22
71384;BME280;67558;52.166;5.004;2023-03-16T08:53:31;101475.47;;;9.10;61.09
71384;BME280;67558;52.166;5.004;2023-03-16T08:56:08;101454.97;;;9.10;60.79
71384;BME280;67558;52.166;5.004;2023-03-16T08:58:35;101448.66;;;9.16;60.66
71384;BME280;67558;52.166;5.004;2023-03-16T09:01:02;101460.34;;;9.27;60.74
71384;BME280;67558;52.166;5.004;2023-03-16T09:03:29;101454.50;;;9.30;60.69
71384;BME280;67558;52.166;5.004;2023-03-16T09:06:03;101455.88;;;9.33;60.45
71384;BME280;67558;52.166;5.004;2023-03-16T09:08:29;101444.97;;;9.34;60.24
71384;BME280;67558;52.166;5.004;2023-03-16T09:11:03;101448.78;;;9.38;59.72
71384;BME280;67558;52.166;5.004;2023-03-16T09:13:30;101446.91;;;9.39;59.73
71384;BME280;67558;52.166;5.004;2023-03-16T09:15:56;101456.28;;;9.41;59.43
71384;BME280;67558;52.166;5.004;2023-03-16T09:18:22;101450.50;;;9.45;59.31
71384;BME280;67558;52.166;5.004;2023-03-16T09:20:50;101454.69;;;9.40;59.03
71384;BME280;67558;52.166;5.004;2023-03-16T09:23:16;101460.34;;;9.44;58.66
71384;BME280;67558;52.166;5.004;2023-03-16T09:25:41;101453.00;;;9.51;58.58
71384;BME280;67558;52.166;5.004;2023-03-16T09:28:06;101441.34;;;9.57;58.75
71384;BME280;67558;52.166;5.004;2023-03-16T09:30:32;101448.78;;;9.72;58.33
71384;BME280;67558;52.166;5.004;2023-03-16T09:32:58;101445.22;;;9.83;58.11
71384;BME280;67558;52.166;5.004;2023-03-16T09:35:24;101436.06;;;9.96;57.89
71384;BME280;67558;52.166;5.004;2023-03-16T09:37:50;101427.28;;;10.01;57.17
71384;BME280;67558;52.166;5.004;2023-03-16T09:40:28;101443.72;;;10.10;55.76
71384;BME280;67558;52.166;5.004;2023-03-16T09:43:14;101433.41;;;10.18;56.56
71384;BME280;67558;52.166;5.004;2023-03-16T09:48:19;101398.91;;;10.17;56.66
71384;BME280;67558;52.166;5.004;2023-03-16T09:50:46;101424.00;;;10.55;55.97
71384;BME280;67558;52.166;5.004;2023-03-16T09:53:21;101431.84;;;10.61;55.52
71384;BME280;67558;52.166;5.004;2023-03-16T09:55:56;101426.69;;;10.55;55.26
71384;BME280;67558;52.166;5.004;2023-03-16T09:58:23;101410.19;;;10.63;55.11
71384;BME280;67558;52.166;5.004;2023-03-16T10:01:25;101427.66;;;10.71;54.51
71384;BME280;67558;52.166;5.004;2023-03-16T10:10:13;101426.72;;;10.82;53.57
71384;BME280;67558;52.166;5.004;2023-03-16T10:12:45;101422.09;;;10.99;53.75
71384;BME280;67558;52.166;5.004;2023-03-16T10:15:17;101420.75;;;11.02;53.38
71384;BME280;67558;52.166;5.004;2023-03-16T10:20:20;101414.78;;;11.22;53.54
71384;BME280;67558;52.166;5.004;2023-03-16T10:22:48;101417.84;;;11.36;53.47
71384;BME280;67558;52.166;5.004;2023-03-16T10:25:29;101409.63;;;11.47;53.25
71384;BME280;67558;52.166;5.004;2023-03-16T10:27:57;101407.53;;;11.55;53.16
71384;BME280;67558;52.166;5.004;2023-03-16T10:32:54;101398.88;;;11.80;53.00
71384;BME280;67558;52.166;5.004;2023-03-16T10:35:40;101397.34;;;11.89;52.62
71384;BME280;67558;52.166;5.004;2023-03-16T10:38:08;101379.13;;;11.91;51.70
71384;BME280;67558;52.166;5.004;2023-03-16T10:40:51;101390.47;;;12.03;51.67
71384;BME280;67558;52.166;5.004;2023-03-16T10:43:17;101354.88;;;11.76;51.42
71384;BME280;67558;52.166;5.004;2023-03-16T10:45:44;101393.16;;;12.08;51.70
71384;BME280;67558;52.166;5.004;2023-03-16T10:48:16;101388.94;;;12.18;51.53
71384;BME280;67558;52.166;5.004;2023-03-16T10:50:50;101383.88;;;12.26;51.08
71384;BME280;67558;52.166;5.004;2023-03-16T10:53:24;101378.81;;;12.40;51.43
71384;BME280;67558;52.166;5.004;2023-03-16T10:55:57;101370.78;;;12.45;50.98
71384;BME280;67558;52.166;5.004;2023-03-16T10:58:24;101360.59;;;12.53;51.20
71384;BME280;67558;52.166;5.004;2023-03-16T11:00:52;101369.44;;;12.58;50.91
71384;BME280;67558;52.166;5.004;2023-03-16T11:03:27;101364.88;;;12.54;48.71
71384;BME280;67558;52.166;5.004;2023-03-16T11:06:04;101362.50;;;12.62;49.71
71384;BME280;67558;52.166;5.004;2023-03-16T11:08:33;101364.38;;;12.62;49.70
71384;BME280;67558;52.166;5.004;2023-03-16T11:11:08;101350.44;;;12.70;49.40
71384;BME280;67558;52.166;5.004;2023-03-16T11:13:36;101349.13;;;12.78;50.01
71384;BME280;67558;52.166;5.004;2023-03-16T11:16:21;101349.13;;;12.83;49.12
71384;BME280;67558;52.166;5.004;2023-03-16T11:18:53;101338.38;;;12.88;49.40
71384;BME280;67558;52.166;5.004;2023-03-16T11:26:57;101329.53;;;13.03;48.37
71384;BME280;67558;52.166;5.004;2023-03-16T11:29:31;101331.94;;;13.09;47.59
71384;BME280;67558;52.166;5.004;2023-03-16T11:32:21;101328.16;;;13.16;47.56
71384;BME280;67558;52.166;5.004;2023-03-16T11:34:50;101324.16;;;13.28;47.76
71384;BME280;67558;52.166;5.004;2023-03-16T11:48:59;101324.38;;;13.63;45.16
71384;BME280;67558;52.166;5.004;2023-03-16T11:51:41;101322.75;;;13.67;43.71
71384;BME280;67558;52.166;5.004;2023-03-16T11:54:36;101312.78;;;13.72;43.98
71384;BME280;67558;52.166;5.004;2023-03-16T12:03:10;101311.59;;;13.99;44.13
71384;BME280;67558;52.166;5.004;2023-03-16T12:11:24;101309.13;;;14.13;44.11
71384;BME280;67558;52.166;5.004;2023-03-16T12:14:04;101302.63;;;14.19;43.43
71384;BME280;67558;52.166;5.004;2023-03-16T12:19:10;101311.44;;;14.35;43.60
71384;BME280;67558;52.166;5.004;2023-03-16T12:21:42;101299.00;;;14.44;43.71
71384;BME280;67558;52.166;5.004;2023-03-16T12:24:20;101297.34;;;14.48;42.51
71384;BME280;67558;52.166;5.004;2023-03-16T12:26:48;101294.38;;;14.55;43.32
71384;BME280;67558;52.166;5.004;2023-03-16T12:29:33;101297.06;;;14.55;42.22
71384;BME280;67558;52.166;5.004;2023-03-16T12:32:20;101290.56;;;14.61;43.12
71384;BME280;67558;52.166;5.004;2023-03-16T12:46:12;101261.03;;;14.85;41.80
71384;BME280;67558;52.166;5.004;2023-03-16T12:48:43;101262.59;;;14.91;42.40
71384;BME280;67558;52.166;5.004;2023-03-16T12:51:10;101243.97;;;14.95;42.52
71384;BME280;67558;52.166;5.004;2023-03-16T12:56:17;101216.72;;;15.02;42.27
71384;BME280;67558;52.166;5.004;2023-03-16T12:58:48;101215.31;;;15.04;42.31
71384;BME280;67558;52.166;5.004;2023-03-16T13:01:19;101215.38;;;14.99;41.95
71384;BME280;67558;52.166;5.004;2023-03-16T13:03:49;101207.59;;;14.98;41.79
71384;BME280;67558;52.166;5.004;2023-03-16T13:06:20;101212.66;;;14.99;41.30
71384;BME280;67558;52.166;5.004;2023-03-16T13:08:50;101209.50;;;14.92;40.75
71384;BME280;67558;52.166;5.004;2023-03-16T13:11:18;101206.53;;;14.93;41.02
71384;BME280;67558;52.166;5.004;2023-03-16T13:13:49;101209.78;;;14.90;40.67
71384;BME280;67558;52.166;5.004;2023-03-16T13:16:25;101216.47;;;14.98;40.28
71384;BME280;67558;52.166;5.004;2023-03-16T13:18:51;101215.59;;;15.03;40.63
71384;BME280;67558;52.166;5.004;2023-03-16T13:21:21;101204.28;;;15.06;40.54
71384;BME280;67558;52.166;5.004;2023-03-16T13:24:12;101201.00;;;15.09;39.83
71384;BME280;67558;52.166;5.004;2023-03-16T13:26:41;101179.44;;;15.09;39.58
71384;BME280;67558;52.166;5.004;2023-03-16T13:29:22;101182.41;;;15.07;39.02
71384;BME280;67558;52.166;5.004;2023-03-16T13:31:49;101179.69;;;15.12;39.57
71384;BME280;67558;52.166;5.004;2023-03-16T13:34:28;101163.50;;;15.12;38.82
71384;BME280;67558;52.166;5.004;2023-03-16T13:36:55;101176.16;;;15.12;38.67
71384;BME280;67558;52.166;5.004;2023-03-16T13:39:24;101167.88;;;15.08;39.36
71384;BME280;67558;52.166;5.004;2023-03-16T13:42:17;101166.25;;;15.07;38.61
71384;BME280;67558;52.166;5.004;2023-03-16T13:44:44;101109.50;;;14.74;38.82
71384;BME280;67558;52.166;5.004;2023-03-16T13:47:14;101172.91;;;15.15;39.37
71384;BME280;67558;52.166;5.004;2023-03-16T13:52:33;101170.47;;;15.19;39.19
71384;BME280;67558;52.166;5.004;2023-03-16T13:55:01;101169.63;;;15.18;39.29
71384;BME280;67558;52.166;5.004;2023-03-16T13:57:37;101164.56;;;15.17;38.78
71384;BME280;67558;52.166;5.004;2023-03-16T14:00:24;101159.16;;;15.17;38.47
71384;BME280;67558;52.166;5.004;2023-03-16T14:02:59;101153.91;;;15.01;37.82
71384;BME280;67558;52.166;5.004;2023-03-16T14:05:32;101158.47;;;15.06;38.39
71384;BME280;67558;52.166;5.004;2023-03-16T14:08:00;101157.97;;;15.04;38.98
71384;BME280;67558;52.166;5.004;2023-03-16T14:10:31;101161.78;;;14.98;38.83
71384;BME280;67558;52.166;5.004;2023-03-16T14:13:06;101152.59;;;14.99;39.11
71384;BME280;67558;52.166;5.004;2023-03-16T14:15:32;101153.91;;;15.01;39.15